Terminal Aerodrome Forecast
Issued by NWS

Home | Current Version | Previous Version | Text Only | Print | Product List | Glossary On
Versions: 1 2 3 4 5 6 7 8 9 10 11 12
803
FTUS45 KPSR 040531
TAFIPL
TAF
KIPL 040531Z 0406/0506 27006KT P6SM SKC
     FM041800 05004KT P6SM FEW180
     FM050200 VRB03KT P6SM BKN200=

USA.gov is the U.S. government's official web portal to all federal, state and local government web resources and services.